Time;durP1;ratioP1;P1;durP2;ratioP2;P2;SDS_P1;SDS_P2;PMS_P1;PMS_P2;Temp;Humidity;BMP_temperature;BMP_pressure;BME280_temperature;BME280_humidity;BME280_pressure;Samples;Min_cycle;Max_cycle;Signal;HPM_P1;HPM_P2
2023/08/24 00:02:02;;;;;;;9.03;8.00;;;24.80;88.00;;;;;;5095130;28;20812;-75
2023/08/24 00:04:30;;;;;;;11.37;8.40;;;24.80;88.30;;;;;;5093190;28;20918;-75
2023/08/24 00:06:58;;;;;;;11.73;10.00;;;24.80;89.10;;;;;;5095018;28;20935;-75
2023/08/24 00:09:25;;;;;;;12.50;9.20;;;24.80;88.30;;;;;;5095413;28;20801;-75
2023/08/24 00:11:53;;;;;;;8.80;7.90;;;24.80;88.20;;;;;;5094975;28;20439;-75
2023/08/24 00:14:20;;;;;;;10.13;9.00;;;24.70;88.10;;;;;;5094869;28;20443;-75
2023/08/24 00:16:47;;;;;;;10.23;8.00;;;24.70;88.30;;;;;;5094864;28;20485;-76
2023/08/24 00:19:14;;;;;;;12.17;7.87;;;24.60;88.20;;;;;;5094127;28;20427;-75
2023/08/24 00:21:42;;;;;;;8.90;8.00;;;24.60;88.30;;;;;;5094412;28;20443;-77
2023/08/24 00:24:09;;;;;;;15.83;9.27;;;24.60;88.40;;;;;;5095257;28;20436;-75
2023/08/24 00:26:38;;;;;;;11.27;9.73;;;24.50;88.70;;;;;;5094725;28;20836;-75
2023/08/24 00:29:10;;;;;;;15.30;9.43;;;24.50;88.80;;;;;;5094585;28;20559;-75
2023/08/24 00:31:38;;;;;;;12.20;10.47;;;24.50;89.20;;;;;;5093862;28;20922;-75
2023/08/24 00:34:05;;;;;;;13.90;9.10;;;24.40;89.50;;;;;;5074306;28;20443;-75
2023/08/24 00:36:34;;;;;;;16.27;11.23;;;24.40;89.50;;;;;;5074460;28;20437;-75
2023/08/24 00:39:02;;;;;;;11.00;9.83;;;24.30;89.10;;;;;;5074593;28;20497;-75
2023/08/24 00:41:29;;;;;;;11.00;9.87;;;24.30;89.50;;;;;;5080719;28;20431;-75
2023/08/24 00:43:57;;;;;;;11.73;9.40;;;24.30;89.60;;;;;;5094729;28;20431;-75
2023/08/24 00:46:26;;;;;;;13.80;10.00;;;24.30;89.90;;;;;;5094240;28;20967;-75
2023/08/24 00:48:56;;;;;;;10.77;8.97;;;24.20;89.90;;;;;;5094798;28;20467;-75
2023/08/24 00:51:24;;;;;;;9.73;8.70;;;24.20;90.00;;;;;;5094279;28;20447;-75
2023/08/24 00:53:52;;;;;;;11.03;9.20;;;24.20;90.00;;;;;;5094528;28;20436;-75
2023/08/24 00:56:25;;;;;;;10.37;9.00;;;24.20;90.10;;;;;;5094457;28;20855;-75
2023/08/24 00:58:53;;;;;;;8.63;7.73;;;24.10;90.30;;;;;;5094325;28;20500;-79
2023/08/24 01:01:20;;;;;;;8.10;7.20;;;24.10;90.20;;;;;;5094025;28;21216;-75
2023/08/24 01:03:47;;;;;;;9.80;8.73;;;24.00;90.30;;;;;;5094090;28;20541;-76
2023/08/24 01:06:14;;;;;;;11.53;8.57;;;24.00;90.40;;;;;;5094204;28;20428;-75
2023/08/24 01:08:43;;;;;;;9.77;8.63;;;23.90;90.60;;;;;;5093838;28;20521;-75
2023/08/24 01:11:15;;;;;;;11.00;9.30;;;23.90;90.60;;;;;;5093596;28;20922;-75
2023/08/24 01:14:00;;;;;;;9.57;8.50;;;23.80;90.80;;;;;;5093818;28;20427;-75
2023/08/24 01:16:30;;;;;;;9.80;7.83;;;23.70;91.00;;;;;;5093567;28;20459;-75
2023/08/24 01:18:59;;;;;;;10.73;7.70;;;23.70;90.90;;;;;;5093757;28;20902;-75
2023/08/24 01:21:26;;;;;;;9.40;8.10;;;23.70;90.80;;;;;;5093285;28;20973;-75
2023/08/24 01:24:04;;;;;;;9.40;8.37;;;23.70;90.90;;;;;;5093064;28;20471;-75
2023/08/24 01:26:33;;;;;;;11.57;8.47;;;23.70;90.90;;;;;;5094022;28;20492;-75
2023/08/24 01:29:02;;;;;;;9.73;8.00;;;23.80;91.00;;;;;;5093953;28;20507;-75
2023/08/24 01:31:29;;;;;;;10.43;8.10;;;23.70;91.00;;;;;;5093338;28;20443;-75
2023/08/24 01:33:56;;;;;;;8.90;8.00;;;23.80;90.90;;;;;;5093834;28;20431;-75
2023/08/24 01:36:24;;;;;;;11.57;9.40;;;23.70;90.80;;;;;;5093843;28;20461;-75
2023/08/24 01:38:59;;;;;;;10.90;8.73;;;23.70;90.90;;;;;;5093369;28;20493;-76
2023/08/24 01:41:31;;;;;;;8.90;8.00;;;23.70;91.10;;;;;;5092952;28;20519;-75
2023/08/24 01:44:04;;;;;;;11.07;8.07;;;23.60;91.10;;;;;;5093649;28;20441;-75
2023/08/24 01:46:35;;;;;;;8.83;7.90;;;23.60;91.00;;;;;;5093782;28;20424;-76
2023/08/24 01:49:04;;;;;;;10.00;8.10;;;23.60;90.90;;;;;;5093237;28;20499;-75
2023/08/24 01:51:32;;;;;;;8.17;7.37;;;23.50;90.80;;;;;;5092613;28;20474;-75
2023/08/24 01:53:59;;;;;;;9.80;8.70;;;23.50;90.70;;;;;;5093280;28;20492;-75
2023/08/24 01:56:26;;;;;;;8.93;7.70;;;23.50;91.00;;;;;;5093576;28;20446;-75
2023/08/24 01:58:56;;;;;;;10.30;7.63;;;23.50;91.00;;;;;;5093594;28;20771;-75
2023/08/24 02:01:25;;;;;;;10.80;8.63;;;23.50;91.00;;;;;;5092924;28;20538;-75
2023/08/24 02:03:52;;;;;;;12.53;9.30;;;23.50;91.00;;;;;;5093373;28;20497;-75
2023/08/24 02:06:19;;;;;;;9.70;8.50;;;23.50;91.00;;;;;;5093042;28;20489;-75
2023/08/24 02:08:49;;;;;;;10.83;9.43;;;23.40;91.20;;;;;;5092958;28;20471;-75
2023/08/24 02:11:16;;;;;;;11.50;9.50;;;23.50;91.20;;;;;;5092663;28;20461;-75
2023/08/24 02:13:43;;;;;;;9.93;8.37;;;23.50;91.20;;;;;;5093189;28;20498;-75
2023/08/24 02:16:11;;;;;;;15.20;8.63;;;23.40;91.30;;;;;;5092720;28;20490;-75
2023/08/24 02:18:40;;;;;;;10.33;8.43;;;23.30;91.60;;;;;;5093089;28;20476;-75
2023/08/24 02:21:11;;;;;;;11.70;9.20;;;23.30;91.50;;;;;;5092636;28;20489;-75
2023/08/24 02:23:38;;;;;;;9.33;7.70;;;23.30;91.40;;;;;;5092953;28;20936;-75
2023/08/24 02:26:05;;;;;;;10.00;7.60;;;23.30;91.20;;;;;;5092975;28;20439;-75
2023/08/24 02:28:34;;;;;;;7.63;6.90;;;23.30;91.10;;;;;;5092823;28;20515;-75
2023/08/24 02:31:02;;;;;;;9.83;8.03;;;23.30;91.20;;;;;;5091526;28;20523;-75
2023/08/24 02:33:29;;;;;;;12.33;8.37;;;23.30;91.20;;;;;;5092054;28;20463;-75
2023/08/24 02:35:58;;;;;;;12.50;9.73;;;23.30;91.30;;;;;;5090612;28;20435;-75
2023/08/24 02:38:27;;;;;;;9.60;8.60;;;23.20;91.20;;;;;;5093183;28;20436;-75
2023/08/24 02:41:02;;;;;;;8.73;7.80;;;23.20;91.30;;;;;;5093124;28;20493;-75
2023/08/24 02:43:29;;;;;;;11.40;8.23;;;23.20;91.30;;;;;;5095882;28;20463;-75
2023/08/24 02:46:01;;;;;;;10.47;8.20;;;23.20;91.30;;;;;;5096609;28;20489;-74
2023/08/24 02:48:30;;;;;;;12.23;8.63;;;23.10;91.10;;;;;;5096567;28;20463;-75
2023/08/24 02:50:59;;;;;;;10.33;9.10;;;23.10;91.10;;;;;;5096843;28;20443;-75
2023/08/24 02:53:27;;;;;;;12.00;8.03;;;23.10;91.40;;;;;;5096049;28;20832;-75
2023/08/24 02:55:54;;;;;;;9.70;8.43;;;23.10;91.20;;;;;;5096458;28;20465;-75
2023/08/24 02:58:26;;;;;;;9.77;8.20;;;23.00;91.80;;;;;;5096434;28;20476;-75
2023/08/24 03:00:55;;;;;;;11.20;9.00;;;23.00;91.50;;;;;;5096621;28;20468;-75
2023/08/24 03:03:24;;;;;;;7.97;7.20;;;22.90;91.80;;;;;;5095929;28;20493;-76
2023/08/24 03:05:55;;;;;;;9.23;8.30;;;22.80;92.00;;;;;;5096624;28;20427;-75
2023/08/24 03:08:24;;;;;;;10.40;8.73;;;22.80;92.30;;;;;;5095880;28;20510;-80
2023/08/24 03:10:51;;;;;;;9.90;8.30;;;22.80;92.40;;;;;;5095570;28;20846;-75
2023/08/24 03:13:19;;;;;;;9.57;7.10;;;22.80;92.20;;;;;;5096082;28;20431;-75
2023/08/24 03:15:49;;;;;;;8.87;7.83;;;22.80;92.00;;;;;;5096155;28;20514;-75
2023/08/24 03:18:17;;;;;;;8.30;6.87;;;22.80;92.00;;;;;;5096098;28;20832;-75
2023/08/24 03:20:45;;;;;;;10.13;7.50;;;22.70;92.00;;;;;;5095682;28;20443;-75
2023/08/24 03:23:18;;;;;;;9.70;7.83;;;22.70;92.10;;;;;;5095979;28;20444;-75
2023/08/24 03:25:46;;;;;;;8.97;7.27;;;22.70;92.20;;;;;;5095946;28;20420;-75
2023/08/24 03:28:13;;;;;;;9.83;7.13;;;22.80;92.30;;;;;;5095871;28;20467;-75
2023/08/24 03:30:48;;;;;;;7.73;6.97;;;22.80;92.20;;;;;;5094923;28;20474;-75
2023/08/24 03:33:16;;;;;;;8.03;7.23;;;22.80;92.10;;;;;;5096163;28;20498;-75
2023/08/24 03:35:43;;;;;;;8.00;7.10;;;22.80;92.00;;;;;;5095713;28;20959;-75
2023/08/24 03:38:10;;;;;;;8.97;7.90;;;22.70;91.90;;;;;;5095671;28;20436;-75
2023/08/24 03:40:39;;;;;;;10.80;8.43;;;22.70;91.50;;;;;;5095244;28;21002;-75
2023/08/24 03:43:07;;;;;;;11.10;8.10;;;22.60;91.50;;;;;;5095126;28;20436;-75
2023/08/24 03:45:34;;;;;;;10.20;7.27;;;22.60;91.70;;;;;;5095779;28;20431;-76
2023/08/24 03:48:03;;;;;;;8.80;7.90;;;22.60;91.60;;;;;;5095045;28;20462;-75
2023/08/24 03:50:30;;;;;;;10.33;8.60;;;22.50;91.60;;;;;;5095683;28;20436;-75
2023/08/24 03:52:57;;;;;;;10.30;9.30;;;22.50;91.80;;;;;;5095723;28;20436;-75
2023/08/24 03:55:26;;;;;;;10.40;9.13;;;22.50;92.10;;;;;;5095327;28;20489;-75
2023/08/24 03:57:54;;;;;;;11.53;7.13;;;22.50;92.20;;;;;;5094915;28;20855;-75
2023/08/24 04:00:23;;;;;;;9.63;8.63;;;22.50;91.80;;;;;;5095475;28;20446;-75
2023/08/24 04:02:50;;;;;;;8.80;7.60;;;22.40;91.60;;;;;;5094922;28;20859;-75
2023/08/24 04:05:17;;;;;;;9.40;8.27;;;22.40;91.70;;;;;;5095352;28;20493;-75
2023/08/24 04:07:44;;;;;;;8.90;8.00;;;22.40;91.60;;;;;;5094850;28;20446;-75
2023/08/24 04:10:14;;;;;;;8.70;7.80;;;22.40;91.40;;;;;;5094927;28;20471;-75
2023/08/24 04:12:41;;;;;;;8.97;7.17;;;22.30;91.40;;;;;;5095298;28;20437;-75
2023/08/24 04:15:11;;;;;;;10.30;6.67;;;22.30;91.60;;;;;;5095323;28;20443;-75
2023/08/24 04:17:40;;;;;;;9.87;8.87;;;22.20;91.80;;;;;;5093649;28;20494;-75
2023/08/24 04:20:08;;;;;;;9.43;6.80;;;22.20;91.70;;;;;;5094206;28;20522;-75
2023/08/24 04:22:35;;;;;;;7.80;7.00;;;22.20;91.00;;;;;;5094095;28;20444;-75
2023/08/24 04:25:07;;;;;;;8.57;7.53;;;22.20;91.10;;;;;;5093839;28;20934;-74
2023/08/24 04:27:34;;;;;;;8.10;6.83;;;22.10;91.40;;;;;;5093408;28;20438;-75
2023/08/24 04:30:03;;;;;;;9.47;6.57;;;22.10;91.40;;;;;;5093257;28;20532;-75
2023/08/24 04:32:30;;;;;;;7.93;7.13;;;22.10;91.40;;;;;;5093189;28;20431;-75
2023/08/24 04:34:58;;;;;;;8.90;7.87;;;22.10;91.70;;;;;;5091335;28;20950;-75
2023/08/24 04:37:25;;;;;;;9.33;8.10;;;22.10;92.00;;;;;;5092736;28;20447;-75
2023/08/24 04:39:52;;;;;;;9.90;7.60;;;22.10;91.70;;;;;;5092830;28;20444;-75
2023/08/24 04:42:19;;;;;;;9.83;8.03;;;22.10;91.70;;;;;;5093177;28;20773;-75
2023/08/24 04:44:46;;;;;;;10.80;8.43;;;22.00;91.70;;;;;;5092866;28;20435;-75
2023/08/24 04:47:14;;;;;;;8.90;7.13;;;22.00;91.80;;;;;;5092806;28;20435;-75
2023/08/24 04:49:43;;;;;;;10.17;8.50;;;22.00;91.60;;;;;;5092864;28;20823;-75
2023/08/24 04:52:11;;;;;;;13.20;8.87;;;22.00;91.60;;;;;;5092478;28;20854;-76
2023/08/24 04:54:38;;;;;;;12.23;9.80;;;21.90;92.00;;;;;;5092779;28;20432;-75
2023/08/24 04:57:06;;;;;;;11.80;8.80;;;21.80;92.30;;;;;;5091727;28;20779;-75
2023/08/24 04:59:48;;;;;;;9.03;8.10;;;21.80;92.40;;;;;;5091937;28;20454;-75
2023/08/24 05:02:17;;;;;;;10.17;8.20;;;21.80;92.60;;;;;;5092507;28;20420;-75
2023/08/24 05:04:44;;;;;;;6.97;6.13;;;21.90;92.70;;;;;;5088402;28;20435;-75
2023/08/24 05:07:24;;;;;;;6.30;5.20;;;21.90;92.50;;;;;;5091859;28;20439;-76
2023/08/24 05:09:54;;;;;;;8.77;5.07;;;22.00;92.20;;;;;;5092274;28;20459;-75
2023/08/24 05:12:21;;;;;;;7.37;5.80;;;22.00;91.90;;;;;;5092596;28;20424;-76
2023/08/24 05:14:58;;;;;;;7.33;6.40;;;22.00;92.00;;;;;;5092518;28;20431;-75
2023/08/24 05:18:28;;;;;;;9.00;6.17;;;22.00;92.40;;;;;;5149515;27;20621;-76
2023/08/24 05:20:55;;;;;;;7.60;6.03;;;22.10;92.50;;;;;;5149852;27;20490;-76
2023/08/24 05:23:22;;;;;;;11.67;8.50;;;22.10;92.40;;;;;;5149625;27;20560;-76
2023/08/24 05:25:49;;;;;;;16.60;9.70;;;22.10;92.50;;;;;;5149865;27;20498;-76
2023/08/24 05:28:21;;;;;;;11.90;8.63;;;22.10;92.40;;;;;;5150032;27;20445;-76
2023/08/24 05:30:48;;;;;;;8.97;7.70;;;22.10;92.50;;;;;;5149833;27;20541;-76
2023/08/24 05:33:15;;;;;;;8.17;6.80;;;22.20;92.70;;;;;;5148662;27;21062;-76
2023/08/24 05:35:44;;;;;;;7.70;7.00;;;22.20;92.90;;;;;;5150144;27;20493;-76
2023/08/24 05:38:11;;;;;;;7.07;6.37;;;22.30;93.00;;;;;;5148247;27;20482;-76
2023/08/24 05:40:42;;;;;;;7.37;6.63;;;22.30;93.30;;;;;;5150117;27;20786;-77
2023/08/24 05:43:09;;;;;;;8.50;6.77;;;22.30;93.00;;;;;;5150353;27;20452;-76
2023/08/24 05:45:36;;;;;;;10.43;8.00;;;22.40;93.10;;;;;;5149462;27;20485;-77
2023/08/24 05:48:04;;;;;;;8.73;7.90;;;22.40;93.10;;;;;;5142446;27;20460;-77
2023/08/24 05:50:31;;;;;;;10.07;8.10;;;22.40;93.00;;;;;;5148689;27;20486;-76
2023/08/24 05:52:59;;;;;;;10.63;7.40;;;22.50;93.10;;;;;;5149460;27;20482;-76
2023/08/24 05:55:27;;;;;;;10.07;7.90;;;22.50;93.40;;;;;;5149026;27;20434;-76
2023/08/24 05:57:54;;;;;;;12.00;8.30;;;22.60;93.50;;;;;;5145231;27;20583;-77
2023/08/24 06:00:22;;;;;;;9.30;8.40;;;22.70;93.30;;;;;;5144689;27;20479;-81
2023/08/24 06:02:49;;;;;;;11.77;8.70;;;22.70;93.30;;;;;;5148904;27;20502;-77
2023/08/24 06:05:17;;;;;;;11.23;7.67;;;22.80;93.40;;;;;;5149302;27;20433;-77
2023/08/24 06:07:47;;;;;;;8.90;8.00;;;22.80;93.00;;;;;;5148378;27;20799;-77
2023/08/24 06:10:16;;;;;;;10.30;7.30;;;22.90;93.20;;;;;;5148653;27;20533;-76
2023/08/24 06:12:43;;;;;;;14.27;8.77;;;23.00;93.30;;;;;;5147604;27;20472;-76
2023/08/24 06:15:13;;;;;;;13.53;7.80;;;23.10;93.50;;;;;;5145332;27;20574;-78
2023/08/24 06:17:47;;;;;;;12.83;8.40;;;23.10;93.10;;;;;;5142680;27;20488;-76
2023/08/24 06:20:14;;;;;;;11.47;8.50;;;23.20;92.90;;;;;;5148456;27;20535;-76
2023/08/24 06:22:41;;;;;;;10.37;9.27;;;23.30;92.90;;;;;;5148800;27;20471;-77
2023/08/24 06:25:09;;;;;;;11.53;8.70;;;23.30;92.90;;;;;;5144810;27;20464;-76
2023/08/24 06:27:38;;;;;;;9.50;8.03;;;23.40;92.90;;;;;;5147489;27;20472;-76
2023/08/24 06:30:05;;;;;;;15.30;9.27;;;23.50;93.10;;;;;;5134698;27;20460;-76
2023/08/24 06:32:32;;;;;;;12.60;8.13;;;23.60;93.30;;;;;;5134304;27;20810;-77
2023/08/24 06:35:00;;;;;;;9.73;8.40;;;23.70;93.40;;;;;;5134650;27;20426;-77
2023/08/24 06:37:27;;;;;;;11.07;7.83;;;23.80;93.20;;;;;;5134701;27;20489;-76
2023/08/24 06:39:54;;;;;;;10.00;7.90;;;23.90;92.80;;;;;;5134153;27;20437;-76
2023/08/24 06:42:21;;;;;;;10.73;8.00;;;24.10;92.50;;;;;;5133289;27;20426;-76
2023/08/24 06:44:50;;;;;;;9.47;8.13;;;24.20;92.10;;;;;;5134018;27;20920;-76
2023/08/24 06:47:17;;;;;;;11.97;8.13;;;24.30;91.50;;;;;;5133206;27;20522;-76
2023/08/24 06:49:44;;;;;;;10.90;7.63;;;24.40;91.20;;;;;;5134619;27;20437;-76
2023/08/24 06:52:11;;;;;;;10.27;8.10;;;24.50;90.60;;;;;;5134097;27;20465;-76
2023/08/24 06:54:38;;;;;;;9.53;7.60;;;24.50;90.20;;;;;;5134196;27;20908;-76
2023/08/24 06:57:05;;;;;;;11.97;8.13;;;24.60;89.90;;;;;;5134916;27;20477;-76
2023/08/24 06:59:33;;;;;;;12.93;9.00;;;24.70;90.20;;;;;;5134631;27;20935;-76
2023/08/24 07:02:04;;;;;;;12.47;7.57;;;24.80;90.30;;;;;;5134628;27;20843;-75
2023/08/24 07:04:31;;;;;;;18.13;7.43;;;24.80;89.20;;;;;;5135052;27;20437;-76
2023/08/24 07:06:58;;;;;;;12.80;7.03;;;24.90;89.20;;;;;;5134780;27;20747;-77
2023/08/24 07:09:30;;;;;;;13.37;6.80;;;25.10;89.10;;;;;;5134054;27;20517;-76
2023/08/24 07:11:57;;;;;;;7.13;6.43;;;25.20;87.70;;;;;;5134403;27;20414;-76
2023/08/24 07:14:24;;;;;;;18.80;7.87;;;25.30;88.20;;;;;;5134610;27;20475;-76
2023/08/24 07:16:51;;;;;;;13.30;7.87;;;25.40;87.90;;;;;;5134450;27;20462;-76
2023/08/24 07:19:20;;;;;;;13.20;7.27;;;25.60;86.40;;;;;;5134026;27;20494;-76
2023/08/24 07:21:47;;;;;;;8.27;7.37;;;25.70;86.30;;;;;;5134433;27;20448;-76
2023/08/24 07:24:14;;;;;;;21.93;8.23;;;25.80;86.00;;;;;;5134434;27;20435;-76
2023/08/24 07:26:42;;;;;;;14.33;6.43;;;25.90;85.90;;;;;;5134198;27;20469;-77
2023/08/24 07:29:15;;;;;;;12.40;7.47;;;26.00;85.60;;;;;;5129278;27;20496;-77
2023/08/24 07:31:42;;;;;;;9.23;7.20;;;26.20;85.30;;;;;;5133933;27;20469;-77
2023/08/24 07:34:09;;;;;;;11.60;7.30;;;26.40;85.30;;;;;;5133946;27;20466;-76
2023/08/24 07:36:38;;;;;;;10.17;7.67;;;26.50;85.40;;;;;;5133917;27;20429;-77
2023/08/24 07:39:05;;;;;;;13.60;7.80;;;26.70;84.70;;;;;;5134138;27;20486;-76
2023/08/24 07:41:32;;;;;;;14.33;8.10;;;26.80;84.50;;;;;;5133243;27;20430;-76
2023/08/24 07:43:59;;;;;;;14.13;7.50;;;27.10;85.00;;;;;;5133880;27;20829;-77
2023/08/24 07:46:26;;;;;;;14.63;7.67;;;27.30;84.00;;;;;;5133775;27;20442;-76
2023/08/24 07:48:54;;;;;;;8.80;7.50;;;27.50;82.00;;;;;;5133644;27;20501;-76
2023/08/24 07:51:21;;;;;;;11.40;8.27;;;27.80;81.30;;;;;;5133937;27;20517;-74
2023/08/24 07:53:51;;;;;;;15.43;8.10;;;28.00;80.60;;;;;;5133273;27;20479;-75
2023/08/24 07:56:18;;;;;;;9.03;7.87;;;28.40;80.80;;;;;;5129758;27;20432;-75
2023/08/24 07:58:46;;;;;;;12.93;8.27;;;28.60;79.10;;;;;;5133432;27;20496;-74
2023/08/24 08:01:13;;;;;;;8.50;7.50;;;29.00;77.80;;;;;;5133290;27;20438;-75
2023/08/24 08:03:40;;;;;;;11.03;7.03;;;29.20;75.80;;;;;;5133031;27;20525;-75
2023/08/24 08:06:07;;;;;;;12.20;6.83;;;29.50;75.20;;;;;;5133299;27;20494;-75
2023/08/24 08:08:34;;;;;;;8.70;6.50;;;29.70;73.50;;;;;;5133175;27;20437;-77
2023/08/24 08:11:03;;;;;;;11.57;7.60;;;29.80;71.80;;;;;;5133254;27;20912;-76
2023/08/24 08:13:31;;;;;;;7.57;6.47;;;30.10;71.90;;;;;;5133276;27;20430;-77
2023/08/24 08:16:03;;;;;;;15.07;7.10;;;30.40;69.50;;;;;;5133001;27;20459;-77
2023/08/24 08:18:30;;;;;;;12.83;7.53;;;30.80;69.50;;;;;;5092138;28;20511;-75
2023/08/24 08:20:57;;;;;;;8.43;6.77;;;31.10;68.30;;;;;;5091990;28;20454;-74
2023/08/24 08:23:24;;;;;;;10.67;6.43;;;31.40;67.10;;;;;;5092366;28;20427;-74
2023/08/24 08:25:51;;;;;;;9.27;6.80;;;31.60;64.70;;;;;;5092436;28;20852;-75
2023/08/24 08:28:20;;;;;;;8.40;6.60;;;31.90;65.30;;;;;;5092019;28;20657;-74
2023/08/24 08:30:49;;;;;;;9.00;6.80;;;32.20;63.90;;;;;;5092108;28;20572;-75
2023/08/24 08:33:16;;;;;;;9.37;7.10;;;32.40;61.80;;;;;;5091806;28;20435;-75
2023/08/24 08:35:43;;;;;;;12.00;5.93;;;32.60;61.70;;;;;;5092144;28;20492;-74
2023/08/24 08:38:10;;;;;;;10.17;6.87;;;32.80;61.00;;;;;;5091935;28;20479;-77
2023/08/24 08:40:38;;;;;;;9.27;6.33;;;33.10;59.70;;;;;;5087892;28;20439;-75
2023/08/24 08:43:06;;;;;;;10.87;6.70;;;33.30;58.60;;;;;;5091718;28;20493;-74
2023/08/24 08:45:35;;;;;;;11.57;6.53;;;33.60;57.20;;;;;;5091992;28;20436;-79
2023/08/24 08:48:03;;;;;;;11.63;7.47;;;33.80;55.20;;;;;;5091244;28;20995;-75
2023/08/24 08:50:36;;;;;;;5.93;5.30;;;34.00;54.20;;;;;;5091685;28;20439;-75
2023/08/24 08:53:04;;;;;;;10.67;6.97;;;34.20;54.60;;;;;;5091828;28;20440;-74
2023/08/24 08:55:32;;;;;;;9.17;6.20;;;34.30;53.20;;;;;;5091481;28;20435;-75
2023/08/24 08:58:01;;;;;;;8.87;7.23;;;34.40;51.90;;;;;;5091930;28;20893;-74
2023/08/24 09:00:29;;;;;;;9.20;6.00;;;34.50;53.40;;;;;;5091855;28;20843;-74
2023/08/24 09:02:58;;;;;;;9.17;5.50;;;34.70;53.60;;;;;;5091799;28;20489;-75
2023/08/24 09:05:26;;;;;;;10.73;6.60;;;34.90;53.10;;;;;;5087584;28;20431;-75
2023/08/24 09:07:55;;;;;;;10.33;6.00;;;35.20;52.40;;;;;;5091791;28;20439;-74
2023/08/24 09:10:23;;;;;;;10.90;7.10;;;35.30;50.40;;;;;;5091708;28;20502;-75
2023/08/24 09:12:50;;;;;;;13.30;6.53;;;35.50;49.70;;;;;;5091261;28;20464;-75
2023/08/24 09:15:26;;;;;;;8.30;6.10;;;35.70;49.50;;;;;;5091416;28;20589;-75
2023/08/24 09:17:54;;;;;;;8.43;6.50;;;35.90;48.60;;;;;;5123676;28;20537;-74
2023/08/24 09:20:23;;;;;;;8.10;5.70;;;36.10;49.40;;;;;;5132073;28;20842;-75
2023/08/24 09:22:51;;;;;;;8.30;5.80;;;36.20;47.90;;;;;;5132520;28;20431;-75
2023/08/24 09:25:18;;;;;;;9.40;6.17;;;36.40;48.80;;;;;;5132499;28;20452;-75
2023/08/24 09:27:44;;;;;;;8.50;7.50;;;36.50;48.00;;;;;;5132457;28;20859;-75
2023/08/24 09:30:13;;;;;;;10.43;6.27;;;36.70;47.80;;;;;;5131864;28;20423;-75
2023/08/24 09:32:40;;;;;;;8.77;6.27;;;36.80;48.60;;;;;;5132306;28;20437;-74
2023/08/24 09:35:10;;;;;;;8.63;6.13;;;36.90;46.60;;;;;;5132332;28;20434;-75
2023/08/24 09:37:39;;;;;;;11.00;6.30;;;37.00;46.70;;;;;;5132102;28;20472;-75
2023/08/24 09:40:08;;;;;;;9.93;6.23;;;37.10;46.80;;;;;;5132503;28;20436;-75
2023/08/24 09:42:40;;;;;;;7.60;6.40;;;37.20;46.00;;;;;;5132247;28;20440;-75
2023/08/24 09:45:10;;;;;;;8.60;5.50;;;37.30;45.70;;;;;;5131499;28;20462;-77
2023/08/24 09:47:38;;;;;;;6.03;5.43;;;37.40;46.00;;;;;;5131866;28;20923;-75
2023/08/24 09:50:06;;;;;;;10.03;5.60;;;37.50;44.20;;;;;;5129577;27;20527;-75
2023/08/24 09:52:36;;;;;;;7.93;5.70;;;37.60;44.30;;;;;;5131647;28;20498;-75
2023/08/24 09:55:07;;;;;;;6.20;5.33;;;37.80;43.30;;;;;;5129566;28;20432;-75
2023/08/24 09:57:38;;;;;;;9.20;5.47;;;38.00;42.30;;;;;;5130665;28;20482;-75
2023/08/24 10:00:10;;;;;;;9.47;6.27;;;38.10;42.60;;;;;;5130742;28;20475;-76
2023/08/24 10:02:38;;;;;;;6.00;5.30;;;38.30;42.20;;;;;;5131392;27;20487;-75
2023/08/24 10:05:21;;;;;;;7.73;5.50;;;38.40;41.60;;;;;;5134540;27;20440;-75
2023/08/24 10:07:52;;;;;;;9.97;5.27;;;38.50;41.30;;;;;;5135264;27;20531;-75
2023/08/24 10:10:23;;;;;;;8.17;5.50;;;38.70;40.90;;;;;;5132541;27;21472;-76
2023/08/24 10:12:53;;;;;;;8.50;6.20;;;38.80;40.90;;;;;;5134479;27;20474;-76
2023/08/24 10:15:27;;;;;;;11.13;5.83;;;38.90;39.60;;;;;;5134588;27;20454;-75
2023/08/24 10:17:55;;;;;;;7.80;4.57;;;39.00;39.10;;;;;;5133868;27;20488;-75
2023/08/24 10:20:23;;;;;;;9.97;5.50;;;39.00;38.80;;;;;;5134586;27;20875;-76
2023/08/24 10:22:53;;;;;;;8.60;4.90;;;39.10;37.40;;;;;;5134636;27;20440;-76
2023/08/24 10:25:24;;;;;;;7.07;4.33;;;39.00;36.10;;;;;;5135063;27;20440;-75
2023/08/24 10:27:53;;;;;;;8.93;5.30;;;38.90;36.30;;;;;;5135121;27;20433;-76
2023/08/24 10:30:22;;;;;;;5.57;4.50;;;38.90;36.90;;;;;;5135436;27;20862;-80
2023/08/24 10:32:53;;;;;;;6.83;4.97;;;39.00;36.90;;;;;;5135421;27;20433;-76
2023/08/24 10:35:25;;;;;;;7.47;4.93;;;39.00;36.70;;;;;;5134868;27;20489;-75
2023/08/24 10:37:54;;;;;;;6.10;5.00;;;39.00;36.90;;;;;;5135085;27;20429;-77
2023/08/24 10:40:34;;;;;;;7.43;5.83;;;39.10;37.40;;;;;;5135114;27;20429;-75
2023/08/24 10:43:05;;;;;;;7.07;4.83;;;39.20;36.80;;;;;;5132230;27;20439;-75
2023/08/24 10:45:56;;;;;;;11.40;5.70;;;39.20;36.00;;;;;;5134904;27;20502;-76
2023/08/24 10:48:24;;;;;;;6.93;5.20;;;39.20;36.00;;;;;;5133558;27;20505;-75
2023/08/24 10:51:20;;;;;;;10.90;5.07;;;39.10;36.20;;;;;;5134805;27;20440;-75
2023/08/24 10:53:48;;;;;;;8.03;4.37;;;39.10;34.90;;;;;;5087809;27;20442;-76
2023/08/24 10:56:18;;;;;;;10.90;4.90;;;39.10;35.40;;;;;;5134939;27;20436;-75
2023/08/24 10:59:07;;;;;;;8.60;5.50;;;39.10;33.90;;;;;;5134939;27;20516;-75
2023/08/24 11:01:34;;;;;;;5.77;4.60;;;38.90;34.20;;;;;;5131878;27;20432;-76
2023/08/24 11:04:01;;;;;;;7.80;5.27;;;38.90;33.70;;;;;;5134876;27;20440;-81
2023/08/24 11:06:29;;;;;;;7.80;4.10;;;38.90;34.30;;;;;;5134897;27;20768;-76
2023/08/24 11:09:09;;;;;;;7.97;4.13;;;38.80;32.90;;;;;;5134817;27;20444;-76
2023/08/24 11:11:37;;;;;;;11.80;4.80;;;38.80;34.00;;;;;;5134331;27;20543;-75
2023/08/24 11:14:22;;;;;;;7.90;5.47;;;38.80;34.80;;;;;;5134566;27;20494;-75
2023/08/24 11:16:50;;;;;;;8.23;4.97;;;38.90;35.50;;;;;;5133699;27;20521;-75
2023/08/24 11:19:17;;;;;;;7.70;5.17;;;38.90;35.70;;;;;;5134203;27;20489;-75
2023/08/24 11:21:46;;;;;;;8.57;5.73;;;39.00;35.20;;;;;;5134585;27;20798;-75
2023/08/24 11:24:14;;;;;;;7.77;5.40;;;38.90;34.70;;;;;;5133235;27;20478;-76
2023/08/24 11:26:43;;;;;;;8.30;4.60;;;38.90;34.40;;;;;;5134316;27;20519;-75
2023/08/24 11:29:10;;;;;;;10.53;5.43;;;38.80;34.80;;;;;;5133808;27;20445;-76
2023/08/24 11:31:38;;;;;;;12.80;5.37;;;38.90;35.00;;;;;;5134105;27;20441;-75
2023/08/24 11:34:07;;;;;;;7.87;4.97;;;38.90;33.40;;;;;;5133852;27;20433;-77
2023/08/24 11:36:43;;;;;;;11.43;5.33;;;38.70;32.90;;;;;;5134145;27;20547;-75
2023/08/24 11:39:16;;;;;;;11.87;5.10;;;38.70;32.40;;;;;;5133518;27;20524;-75
2023/08/24 11:41:45;;;;;;;13.10;5.03;;;38.50;32.30;;;;;;5129570;27;20508;-75
2023/08/24 11:44:12;;;;;;;9.07;4.90;;;38.50;32.90;;;;;;5131621;27;20448;-75
2023/08/24 11:46:40;;;;;;;7.30;4.90;;;38.50;33.50;;;;;;5132583;27;20835;-75
2023/08/24 11:49:07;;;;;;;6.33;4.80;;;38.60;35.00;;;;;;5133374;27;20435;-76
2023/08/24 11:51:35;;;;;;;11.80;4.97;;;38.70;35.90;;;;;;5132857;27;20441;-75
2023/08/24 11:54:02;;;;;;;9.63;4.80;;;38.70;37.00;;;;;;5133247;27;20984;-75
2023/08/24 11:56:29;;;;;;;8.33;5.30;;;38.80;36.50;;;;;;5133556;27;20465;-76
2023/08/24 11:59:15;;;;;;;8.20;4.03;;;38.70;31.50;;;;;;5125979;27;20522;-81
2023/08/24 12:01:43;;;;;;;8.50;5.10;;;38.70;32.30;;;;;;5130618;27;20428;-76
2023/08/24 12:04:10;;;;;;;6.97;4.10;;;38.70;32.10;;;;;;5133450;27;20448;-75
2023/08/24 12:06:37;;;;;;;8.70;4.30;;;38.70;33.10;;;;;;5133264;27;20467;-78
2023/08/24 12:09:06;;;;;;;8.40;4.90;;;38.80;34.30;;;;;;5133588;27;20493;-76
2023/08/24 12:11:37;;;;;;;8.83;5.00;;;38.90;35.50;;;;;;5132807;27;20504;-76
2023/08/24 12:14:10;;;;;;;10.20;5.30;;;39.00;36.80;;;;;;5133328;27;20437;-75
2023/08/24 12:16:39;;;;;;;9.10;5.67;;;39.00;37.20;;;;;;5133259;27;20516;-75
2023/08/24 12:19:09;;;;;;;10.17;4.30;;;39.10;37.40;;;;;;5132596;27;20477;-76
2023/08/24 12:21:36;;;;;;;8.60;5.27;;;39.20;37.10;;;;;;5133367;27;20440;-75
2023/08/24 12:24:05;;;;;;;7.70;5.20;;;39.20;37.20;;;;;;5133368;27;20460;-76
2023/08/24 12:26:33;;;;;;;7.80;4.90;;;39.20;37.10;;;;;;5132439;27;20876;-76
2023/08/24 12:29:05;;;;;;;11.20;4.53;;;39.20;36.90;;;;;;5132890;27;20448;-76
2023/08/24 12:31:32;;;;;;;13.10;5.93;;;39.20;35.90;;;;;;5132973;27;20433;-76
2023/08/24 12:34:03;;;;;;;12.93;4.90;;;39.20;36.30;;;;;;5132804;27;20441;-76
2023/08/24 12:36:30;;;;;;;7.00;4.90;;;39.20;36.60;;;;;;5129337;27;20533;-76
2023/08/24 12:38:57;;;;;;;12.77;5.03;;;39.10;36.50;;;;;;5133172;27;20484;-75
2023/08/24 12:41:24;;;;;;;8.37;5.60;;;39.10;35.50;;;;;;5132793;27;20440;-75
2023/08/24 12:43:52;;;;;;;13.83;5.13;;;39.00;35.70;;;;;;5132251;27;20440;-76
2023/08/24 12:46:19;;;;;;;7.57;4.10;;;39.00;35.40;;;;;;5132908;27;20485;-75
2023/08/24 12:48:46;;;;;;;11.97;5.60;;;39.00;36.20;;;;;;5133003;27;20525;-75
2023/08/24 12:51:14;;;;;;;8.30;4.80;;;38.90;36.30;;;;;;5132941;27;20433;-76
2023/08/24 12:53:41;;;;;;;11.27;5.60;;;38.90;36.70;;;;;;5132037;27;20490;-76